createdAt,value
2019-05-12T00:00:39.583Z,8.90
2019-05-12T00:03:08.913Z,8.90
2019-05-12T00:05:38.435Z,8.90
2019-05-12T00:08:08.462Z,8.90
2019-05-12T00:10:38.704Z,8.90
2019-05-12T00:13:08.611Z,8.90
2019-05-12T00:15:38.610Z,8.70
2019-05-12T00:18:09.098Z,8.90
2019-05-12T00:20:38.903Z,8.90
2019-05-12T00:23:23.186Z,9.00
2019-05-12T00:25:39.341Z,8.90
2019-05-12T00:28:08.671Z,8.90
2019-05-12T00:30:39.628Z,8.90
2019-05-12T00:33:09.592Z,9.00
2019-05-12T00:35:39.479Z,9.00
2019-05-12T00:38:09.375Z,9.00
2019-05-12T00:40:39.562Z,9.10
2019-05-12T00:43:09.978Z,9.00
2019-05-12T00:45:39.917Z,9.00
2019-05-12T00:48:09.735Z,9.10
2019-05-12T00:50:39.065Z,8.80
2019-05-12T00:53:09.311Z,8.90
2019-05-12T00:55:38.947Z,8.80
2019-05-12T00:58:08.982Z,8.70
2019-05-12T01:00:41.081Z,8.70
2019-05-12T01:03:09.829Z,8.80
2019-05-12T01:05:39.167Z,8.90
2019-05-12T01:08:09.474Z,8.80
2019-05-12T01:10:39.490Z,8.90
2019-05-12T01:13:09.124Z,8.80
2019-05-12T01:15:38.666Z,8.90
2019-05-12T01:18:09.835Z,8.90
2019-05-12T01:20:39.435Z,9.00
2019-05-12T01:23:09.105Z,9.00
2019-05-12T01:25:39.501Z,8.90
2019-05-12T01:28:09.560Z,9.00
2019-05-12T01:30:39.468Z,9.00
2019-05-12T01:33:09.138Z,8.90
2019-05-12T01:35:39.274Z,9.10
2019-05-12T01:38:08.697Z,9.00
2019-05-12T01:40:39.338Z,8.90
2019-05-12T01:43:09.160Z,8.80
2019-05-12T01:45:38.607Z,8.80
2019-05-12T01:48:09.190Z,9.00
2019-05-12T01:50:39.275Z,9.00
2019-05-12T01:53:08.875Z,9.00
2019-05-12T01:55:39.214Z,9.00
2019-05-12T01:58:09.132Z,9.10
2019-05-12T02:00:39.203Z,9.10
2019-05-12T02:03:09.578Z,8.80
2019-05-12T02:05:40.719Z,8.90
2019-05-12T02:08:11.668Z,9.00
2019-05-12T02:10:41.001Z,9.00
2019-05-12T02:13:10.316Z,8.90
2019-05-12T02:15:39.645Z,8.90
2019-05-12T02:18:09.373Z,8.80
2019-05-12T02:20:38.775Z,8.70
2019-05-12T02:23:08.990Z,8.70
2019-05-12T02:25:38.666Z,8.80
2019-05-12T02:28:09.403Z,8.80
2019-05-12T02:30:41.469Z,8.60
2019-05-12T02:33:10.022Z,8.60
2019-05-12T02:35:39.334Z,8.60
2019-05-12T02:38:08.655Z,8.70
2019-05-12T02:40:37.985Z,8.70
2019-05-12T02:43:07.300Z,8.60
2019-05-12T02:45:36.690Z,8.60
2019-05-12T02:48:06.176Z,8.60
2019-05-12T02:50:38.069Z,8.50
2019-05-12T02:53:07.933Z,8.60
2019-05-12T02:55:37.818Z,8.50
2019-05-12T02:58:07.212Z,8.60
2019-05-12T03:00:37.384Z,8.60
2019-05-12T03:03:09.533Z,8.50
2019-05-12T03:05:44.237Z,8.40
2019-05-12T03:08:15.275Z,8.40
2019-05-12T03:10:48.631Z,8.40
2019-05-12T03:13:17.941Z,8.50
2019-05-12T03:15:47.292Z,8.30
2019-05-12T03:18:16.654Z,8.50
2019-05-12T03:20:46.015Z,8.40
2019-05-12T03:23:18.950Z,8.40
2019-05-12T03:25:46.452Z,8.30
2019-05-12T03:28:16.157Z,8.40
2019-05-12T03:30:48.488Z,8.10
2019-05-12T03:33:19.424Z,8.10
2019-05-12T03:35:53.041Z,8.20
2019-05-12T03:38:18.893Z,8.10
2019-05-12T03:40:48.229Z,8.40
2019-05-12T03:43:17.537Z,8.40
2019-05-12T03:45:46.871Z,8.40
2019-05-12T03:48:18.343Z,8.10
2019-05-12T03:50:47.750Z,8.10
2019-05-12T03:53:17.889Z,8.10
2019-05-12T03:55:47.519Z,8.30
2019-05-12T03:58:16.978Z,8.20
2019-05-12T04:00:46.402Z,8.10
2019-05-12T04:03:15.815Z,8.20
2019-05-12T04:05:45.514Z,8.40
2019-05-12T04:08:16.040Z,8.30
2019-05-12T04:10:45.943Z,8.40
2019-05-12T04:13:15.661Z,8.30
2019-05-12T04:15:45.621Z,8.30
2019-05-12T04:18:16.204Z,8.40
2019-05-12T04:20:46.431Z,8.20
2019-05-12T04:23:15.975Z,8.20
2019-05-12T04:25:51.971Z,8.20
2019-05-12T04:28:16.370Z,8.50
2019-05-12T04:30:45.740Z,8.40
2019-05-12T04:33:15.862Z,8.50
2019-05-12T04:35:45.540Z,8.40
2019-05-12T04:38:15.405Z,8.40
2019-05-12T04:40:45.625Z,8.50
2019-05-12T04:43:15.427Z,8.60
2019-05-12T04:45:45.347Z,8.40
2019-05-12T04:48:18.174Z,8.30
2019-05-12T04:50:46.096Z,8.20
2019-05-12T04:53:15.415Z,8.20
2019-05-12T04:55:44.977Z,8.30
2019-05-12T04:58:15.756Z,8.50
2019-05-12T05:00:45.723Z,8.50
2019-05-12T05:03:15.017Z,8.20
2019-05-12T05:05:44.736Z,8.10
2019-05-12T05:08:19.310Z,8.10
2019-05-12T05:10:45.277Z,8.20
2019-05-12T05:13:15.215Z,8.20
2019-05-12T05:15:45.055Z,8.20
2019-05-12T05:18:14.403Z,8.20
2019-05-12T05:20:43.984Z,8.30
2019-05-12T05:23:14.113Z,8.20
2019-05-12T05:25:43.765Z,8.20
2019-05-12T05:28:14.607Z,8.20
2019-05-12T05:30:44.432Z,8.20
2019-05-12T05:33:14.521Z,8.10
2019-05-12T05:35:44.058Z,8.20
2019-05-12T05:38:19.136Z,8.20
2019-05-12T05:40:45.568Z,8.20
2019-05-12T05:43:18.432Z,8.10
2019-05-12T05:45:46.075Z,8.20
2019-05-12T05:48:15.406Z,8.30
2019-05-12T05:50:44.724Z,8.20
2019-05-12T05:53:19.394Z,8.10
2019-05-12T05:55:45.092Z,8.00
2019-05-12T05:58:15.404Z,8.10
2019-05-12T06:00:44.834Z,8.10
2019-05-12T06:03:22.785Z,8.00
2019-05-12T06:05:45.191Z,8.10
2019-05-12T06:08:20.272Z,8.20
2019-05-12T06:10:46.298Z,8.20
2019-05-12T06:13:15.630Z,8.30
2019-05-12T06:15:45.085Z,8.40
2019-05-12T06:18:14.419Z,8.30
2019-05-12T06:20:43.934Z,8.30
2019-05-12T06:23:14.747Z,8.30
2019-05-12T06:25:50.892Z,8.10
2019-05-12T06:28:15.391Z,8.20
2019-05-12T06:30:47.643Z,8.20
2019-05-12T06:33:15.765Z,8.40
2019-05-12T06:35:45.539Z,8.30
2019-05-12T06:38:15.002Z,8.40
2019-05-12T06:40:45.572Z,8.50
2019-05-12T06:43:15.053Z,8.50
2019-05-12T06:45:45.655Z,8.50
2019-05-12T06:48:19.357Z,8.60
2019-05-12T06:50:46.202Z,8.50
2019-05-12T06:53:20.048Z,8.40
2019-05-12T06:55:46.571Z,8.40
2019-05-12T06:58:26.371Z,8.40
2019-05-12T07:00:46.938Z,8.40
2019-05-12T07:03:19.376Z,8.40
2019-05-12T07:05:47.311Z,8.40
2019-05-12T07:08:20.087Z,8.70
2019-05-12T07:10:57.844Z,8.60
2019-05-12T07:13:29.257Z,8.70
2019-05-12T07:15:51.454Z,9.00
2019-05-12T07:18:24.336Z,8.90
2019-05-12T07:20:53.911Z,8.90
2019-05-12T07:23:25.799Z,8.90
2019-05-12T07:25:54.946Z,9.00
2019-05-12T07:28:24.438Z,8.90
2019-05-12T07:30:54.465Z,8.90
2019-05-12T07:33:24.219Z,8.90
2019-05-12T07:36:00.998Z,8.80
2019-05-12T07:38:26.830Z,8.90
2019-05-12T07:41:00.881Z,9.00
2019-05-12T07:43:29.834Z,9.20
2019-05-12T07:46:06.927Z,9.30
2019-05-12T07:48:33.243Z,9.40
2019-05-12T07:51:04.016Z,9.30
2019-05-12T07:53:33.841Z,9.20
2019-05-12T07:56:04.170Z,9.20
2019-05-12T07:58:33.556Z,9.20
2019-05-12T08:01:07.150Z,9.20
2019-05-12T08:03:34.538Z,9.30
2019-05-12T08:06:04.611Z,9.40
2019-05-12T08:08:34.151Z,9.50
2019-05-12T08:11:04.405Z,9.60
2019-05-12T08:13:37.875Z,9.40
2019-05-12T08:16:05.129Z,9.40
2019-05-12T08:18:36.969Z,9.50
2019-05-12T08:21:05.500Z,9.70
2019-05-12T08:23:37.785Z,9.70
2019-05-12T08:26:12.525Z,9.70
2019-05-12T08:28:40.379Z,9.70
2019-05-12T08:31:08.242Z,9.80
2019-05-12T08:33:37.629Z,9.60
2019-05-12T08:36:11.372Z,9.70
2019-05-12T08:38:38.073Z,9.90
2019-05-12T08:41:07.551Z,9.90
2019-05-12T08:43:40.686Z,10.10
2019-05-12T08:46:12.131Z,10.00
2019-05-12T08:48:38.983Z,10.10
2019-05-12T08:51:14.365Z,10.30
2019-05-12T08:53:39.957Z,10.40
2019-05-12T08:56:13.247Z,10.50
2019-05-12T08:58:48.231Z,10.30
2019-05-12T09:01:13.796Z,10.20
2019-05-12T09:03:44.281Z,10.10
2019-05-12T09:06:15.430Z,10.40
2019-05-12T09:08:49.233Z,10.60
2019-05-12T09:11:16.955Z,10.70
2019-05-12T09:13:46.668Z,10.80
2019-05-12T09:16:16.429Z,10.90
2019-05-12T09:18:46.263Z,11.10
2019-05-12T09:21:15.944Z,11.50
2019-05-12T09:23:48.065Z,11.30
2019-05-12T09:26:18.519Z,11.10
2019-05-12T09:28:50.570Z,11.00
2019-05-12T09:31:25.390Z,10.70
2019-05-12T09:33:51.079Z,10.80
2019-05-12T09:36:21.791Z,10.70
2019-05-12T09:38:55.847Z,10.80
2019-05-12T09:41:25.225Z,10.60
2019-05-12T09:43:56.084Z,10.60
2019-05-12T09:46:28.313Z,10.70
2019-05-12T09:48:56.543Z,10.90
2019-05-12T09:51:26.626Z,11.20
2019-05-12T09:53:55.962Z,11.30
2019-05-12T09:56:25.314Z,11.20
2019-05-12T09:59:01.451Z,11.10
2019-05-12T10:01:29.395Z,11.00
2019-05-12T10:03:56.796Z,11.00
2019-05-12T10:06:26.142Z,11.10
2019-05-12T10:08:55.450Z,11.00
2019-05-12T10:11:24.792Z,11.00
2019-05-12T10:13:54.377Z,11.20
2019-05-12T10:16:24.195Z,11.10
2019-05-12T10:18:53.528Z,11.10
2019-05-12T10:21:23.778Z,11.10
2019-05-12T10:24:00.144Z,11.30
2019-05-12T10:26:24.260Z,11.40
2019-05-12T10:28:58.249Z,11.50
2019-05-12T10:31:29.787Z,11.40
2019-05-12T10:33:58.345Z,11.30
2019-05-12T10:36:27.635Z,11.50
2019-05-12T10:38:56.959Z,11.50
2019-05-12T10:41:26.293Z,11.50
2019-05-12T10:43:57.749Z,11.40
2019-05-12T10:46:28.615Z,11.30
2019-05-12T10:48:57.721Z,11.30
2019-05-12T10:51:27.066Z,11.30
2019-05-12T10:54:05.572Z,11.30
2019-05-12T10:56:27.461Z,11.40
2019-05-12T10:58:56.808Z,11.40
2019-05-12T11:01:26.111Z,11.30
2019-05-12T11:03:55.448Z,11.60
2019-05-12T11:06:24.762Z,11.50
2019-05-12T11:08:54.282Z,11.40
2019-05-12T11:11:24.052Z,11.40
2019-05-12T11:13:53.901Z,11.40
2019-05-12T11:16:30.762Z,11.40
2019-05-12T11:18:54.359Z,11.20
2019-05-12T11:21:23.685Z,11.40
2019-05-12T11:23:54.454Z,11.70
2019-05-12T11:26:23.818Z,11.90
2019-05-12T11:28:53.335Z,12.60
2019-05-12T11:31:24.333Z,12.90
2019-05-12T11:33:54.213Z,12.70
2019-05-12T11:36:24.144Z,12.20
2019-05-12T11:38:53.599Z,12.20
2019-05-12T11:41:28.233Z,12.20
2019-05-12T11:43:54.031Z,12.20
2019-05-12T11:46:23.917Z,12.20
2019-05-12T11:48:53.902Z,12.20
2019-05-12T11:51:26.939Z,12.10
2019-05-12T11:53:54.391Z,12.10
2019-05-12T11:56:24.350Z,12.10
2019-05-12T11:58:54.308Z,12.10
2019-05-12T12:01:25.371Z,11.90
2019-05-12T12:03:54.821Z,11.90
2019-05-12T12:06:24.217Z,12.20
2019-05-12T12:08:53.824Z,12.50
2019-05-12T12:11:27.626Z,12.70
2019-05-12T12:13:54.268Z,13.10
2019-05-12T12:16:23.869Z,13.50
2019-05-12T12:19:02.359Z,13.40
2019-05-12T12:21:24.241Z,13.50
2019-05-12T12:23:53.624Z,13.50
2019-05-12T12:26:26.098Z,13.40
2019-05-12T12:28:56.261Z,13.30
2019-05-12T12:31:29.508Z,13.20
2019-05-12T12:33:56.641Z,13.20
2019-05-12T12:36:25.963Z,13.10
2019-05-12T12:38:55.300Z,13.20
2019-05-12T12:41:24.620Z,13.10
2019-05-12T12:43:54.164Z,13.50
2019-05-12T12:46:25.197Z,14.00
2019-05-12T12:48:54.533Z,14.20
2019-05-12T12:51:23.854Z,14.00
2019-05-12T12:53:54.102Z,13.90
2019-05-12T12:56:28.404Z,14.10
2019-05-12T12:58:55.396Z,14.40
2019-05-12T13:01:28.673Z,14.60
2019-05-12T13:03:59.498Z,14.30
2019-05-12T13:06:27.041Z,14.20
2019-05-12T13:08:56.388Z,14.10
2019-05-12T13:11:33.280Z,14.00
2019-05-12T13:13:56.787Z,13.90
2019-05-12T13:16:26.115Z,14.10
2019-05-12T13:18:55.459Z,14.50
2019-05-12T13:21:24.782Z,14.90
2019-05-12T13:23:54.125Z,15.10
2019-05-12T13:26:23.961Z,15.20
2019-05-12T13:28:55.079Z,15.10
2019-05-12T13:31:24.470Z,15.20
2019-05-12T13:33:54.802Z,15.50
2019-05-12T13:36:29.268Z,15.60
2019-05-12T13:38:55.435Z,15.80
2019-05-12T13:41:24.755Z,16.10
2019-05-12T13:43:58.039Z,16.20
2019-05-12T13:46:25.156Z,16.30
2019-05-12T13:48:56.111Z,16.20
2019-05-12T13:51:25.547Z,16.10
2019-05-12T13:53:54.858Z,16.10
2019-05-12T13:56:29.864Z,16.30
2019-05-12T13:58:55.240Z,16.30
2019-05-12T14:01:24.961Z,16.40
2019-05-12T14:03:54.375Z,16.50
2019-05-12T14:06:31.818Z,16.40
2019-05-12T14:08:54.771Z,16.20
2019-05-12T14:11:24.170Z,15.80
2019-05-12T14:13:53.451Z,16.00
2019-05-12T14:16:23.863Z,16.20
2019-05-12T14:18:57.110Z,16.20
2019-05-12T14:21:24.582Z,16.20
2019-05-12T14:23:53.868Z,16.50
2019-05-12T14:26:24.224Z,16.60
2019-05-12T14:28:53.597Z,16.70
2019-05-12T14:31:30.071Z,16.60
2019-05-12T14:33:54.122Z,16.80
2019-05-12T14:36:26.582Z,16.80
2019-05-12T14:38:54.478Z,16.70
2019-05-12T14:41:27.010Z,16.70
2019-05-12T14:44:01.553Z,16.80
2019-05-12T14:46:26.660Z,16.80
2019-05-12T14:48:55.981Z,16.70
2019-05-12T14:51:25.315Z,16.90
2019-05-12T14:53:59.087Z,17.40
2019-05-12T14:56:30.055Z,17.50
2019-05-12T14:59:03.623Z,17.60
2019-05-12T15:01:51.752Z,17.20
2019-05-12T15:04:13.317Z,17.00
2019-05-12T15:06:45.639Z,16.90
2019-05-12T15:09:21.767Z,17.30
2019-05-12T15:11:48.824Z,17.40
2019-05-12T15:14:18.154Z,17.50
2019-05-12T15:16:50.704Z,17.80
2019-05-12T15:19:29.808Z,17.90
2019-05-12T15:22:01.483Z,17.50
2019-05-12T15:24:29.668Z,16.90
2019-05-12T15:27:00.945Z,16.50
2019-05-12T15:29:30.241Z,16.10
2019-05-12T15:31:59.583Z,16.10
2019-05-12T15:34:28.900Z,16.40
2019-05-12T15:37:00.191Z,16.70
2019-05-12T15:39:29.282Z,16.80
2019-05-12T15:42:03.331Z,17.20
2019-05-12T15:44:36.761Z,17.20
2019-05-12T15:47:06.371Z,17.30
2019-05-12T15:49:35.687Z,17.00
2019-05-12T15:52:05.057Z,16.90
2019-05-12T15:54:36.248Z,16.60
2019-05-12T15:57:05.521Z,16.60
2019-05-12T15:59:34.802Z,17.00
2019-05-12T16:02:13.146Z,17.30
2019-05-12T16:04:42.621Z,17.40
2019-05-12T16:07:09.336Z,17.20
2019-05-12T16:09:38.669Z,17.10
2019-05-12T16:12:18.597Z,16.90
2019-05-12T16:14:41.071Z,17.20
2019-05-12T16:17:10.119Z,17.20
2019-05-12T16:19:39.434Z,17.20
2019-05-12T16:22:08.779Z,17.20
2019-05-12T16:24:38.104Z,17.30
2019-05-12T16:27:08.233Z,17.20
2019-05-12T16:29:38.999Z,17.20
2019-05-12T16:32:22.358Z,17.40
2019-05-12T16:34:44.971Z,17.50
2019-05-12T16:37:10.805Z,17.40
2019-05-12T16:39:46.613Z,17.00
2019-05-12T16:42:11.287Z,16.90
2019-05-12T16:44:40.590Z,16.70
2019-05-12T16:47:09.928Z,16.40
2019-05-12T16:49:39.244Z,16.30
2019-05-12T16:52:08.582Z,16.20
2019-05-12T16:54:37.897Z,16.20
2019-05-12T16:57:11.776Z,16.40
2019-05-12T16:59:38.273Z,16.40
2019-05-12T17:02:09.797Z,16.20
2019-05-12T17:04:40.562Z,16.20
2019-05-12T17:07:17.233Z,16.20
2019-05-12T17:09:40.950Z,15.90
2019-05-12T17:12:10.678Z,16.00
2019-05-12T17:14:49.914Z,15.90
2019-05-12T17:17:14.819Z,15.80
2019-05-12T17:19:45.022Z,15.40
2019-05-12T17:22:17.359Z,15.40
2019-05-12T17:24:45.488Z,15.70
2019-05-12T17:27:23.582Z,16.00
2019-05-12T17:29:46.550Z,15.80
2019-05-12T17:32:16.565Z,15.40
2019-05-12T17:34:47.572Z,15.40
2019-05-12T17:37:17.008Z,15.40
2019-05-12T17:39:46.324Z,15.60
2019-05-12T17:42:21.527Z,15.60
2019-05-12T17:44:46.711Z,15.40
2019-05-12T17:47:21.404Z,15.60
2019-05-12T17:49:47.090Z,15.40
2019-05-12T17:52:18.547Z,15.40
2019-05-12T17:54:47.459Z,15.30
2019-05-12T17:57:19.889Z,15.20
2019-05-12T17:59:47.848Z,15.10
2019-05-12T18:02:17.257Z,15.00
2019-05-12T18:04:49.766Z,15.00
2019-05-12T18:07:19.257Z,14.80
2019-05-12T18:09:50.657Z,14.90
2019-05-12T18:12:19.809Z,14.90
2019-05-12T18:14:52.275Z,14.90
2019-05-12T18:17:20.200Z,14.80
2019-05-12T18:19:50.382Z,14.60
2019-05-12T18:22:20.773Z,14.60
2019-05-12T18:24:51.004Z,14.50
2019-05-12T18:27:23.789Z,14.40
2019-05-12T18:29:53.804Z,14.20
2019-05-12T18:32:24.392Z,14.20
2019-05-12T18:34:54.060Z,14.10
2019-05-12T18:37:24.756Z,13.90
2019-05-12T18:39:54.133Z,13.80
2019-05-12T18:42:24.587Z,13.80
2019-05-12T18:44:54.672Z,13.60
2019-05-12T18:47:31.920Z,13.70
2019-05-12T18:49:55.141Z,13.50
2019-05-12T18:52:29.204Z,13.40
2019-05-12T18:54:57.173Z,13.40
2019-05-12T18:57:26.755Z,13.40
2019-05-12T19:00:01.480Z,13.40
2019-05-12T19:02:28.510Z,13.50
2019-05-12T19:04:58.133Z,13.30
2019-05-12T19:07:39.348Z,13.00
2019-05-12T19:09:58.519Z,13.00
2019-05-12T19:12:32.481Z,13.00
2019-05-12T19:14:59.298Z,13.10
2019-05-12T19:17:28.617Z,13.00
2019-05-12T19:19:59.893Z,13.00
2019-05-12T19:22:29.007Z,12.90
2019-05-12T19:25:00.048Z,12.80
2019-05-12T19:27:29.862Z,12.80
2019-05-12T19:29:59.219Z,12.80
2019-05-12T19:32:29.429Z,12.70
2019-05-12T19:34:58.770Z,12.70
2019-05-12T19:37:30.092Z,12.70
2019-05-12T19:40:04.028Z,12.80
2019-05-12T19:42:36.234Z,12.60
2019-05-12T19:45:19.347Z,12.50
2019-05-12T19:47:40.185Z,12.40
2019-05-12T19:50:13.185Z,12.30
2019-05-12T19:52:41.929Z,12.30
2019-05-12T19:55:14.002Z,12.30
2019-05-12T19:57:44.445Z,12.50
2019-05-12T20:00:17.244Z,12.20
2019-05-12T20:02:46.655Z,12.20
2019-05-12T20:05:17.643Z,12.10
2019-05-12T20:07:47.085Z,12.00
2019-05-12T20:10:19.954Z,12.20
2019-05-12T20:12:54.642Z,12.20
2019-05-12T20:15:23.981Z,12.10
2019-05-12T20:17:55.485Z,12.10
2019-05-12T20:20:28.858Z,12.10
2019-05-12T20:22:55.876Z,12.20
2019-05-12T20:25:25.204Z,12.30
2019-05-12T20:28:04.342Z,12.20
2019-05-12T20:30:28.180Z,12.10
2019-05-12T20:32:57.607Z,12.10
2019-05-12T20:35:26.947Z,12.10
2019-05-12T20:37:57.552Z,12.00
2019-05-12T20:40:26.958Z,11.90
2019-05-12T20:43:08.003Z,11.80
2019-05-12T20:45:33.086Z,11.90
2019-05-12T20:47:58.400Z,11.80
2019-05-12T20:50:32.562Z,11.70
2019-05-12T20:52:59.230Z,11.60
2019-05-12T20:55:30.027Z,11.60
2019-05-12T20:57:59.847Z,11.60
2019-05-12T21:00:29.188Z,11.40
2019-05-12T21:02:58.520Z,11.40
2019-05-12T21:05:27.879Z,11.30
2019-05-12T21:08:04.664Z,11.10
2019-05-12T21:10:29.830Z,11.00
2019-05-12T21:12:59.158Z,11.00
2019-05-12T21:15:37.168Z,10.90
2019-05-12T21:18:06.467Z,10.90
2019-05-12T21:20:30.616Z,10.90
2019-05-12T21:22:59.927Z,10.80
2019-05-12T21:25:29.262Z,10.70
2019-05-12T21:28:02.710Z,10.50
2019-05-12T21:30:30.208Z,10.30
2019-05-12T21:33:01.214Z,10.10
2019-05-12T21:35:32.043Z,10.10
2019-05-12T21:38:03.984Z,10.10
2019-05-12T21:40:34.939Z,10.20
2019-05-12T21:43:04.237Z,10.20
2019-05-12T21:45:33.988Z,10.00
2019-05-12T21:48:03.771Z,10.00
2019-05-12T21:50:38.209Z,9.80
2019-05-12T21:53:04.499Z,9.80
2019-05-12T21:55:34.514Z,9.60
2019-05-12T21:58:10.489Z,9.50
2019-05-12T22:00:45.320Z,9.30
2019-05-12T22:03:15.623Z,9.20
2019-05-12T22:05:51.362Z,9.20
2019-05-12T22:08:22.043Z,9.10
2019-05-12T22:10:48.731Z,9.10
2019-05-12T22:13:18.353Z,9.00
2019-05-12T22:15:51.487Z,9.00
2019-05-12T22:18:18.975Z,9.00
2019-05-12T22:20:54.396Z,8.90
2019-05-12T22:23:19.407Z,8.90
2019-05-12T22:25:55.645Z,8.90
2019-05-12T22:28:19.773Z,9.00
2019-05-12T22:30:49.084Z,8.90
2019-05-12T22:33:18.416Z,8.80
2019-05-12T22:36:00.737Z,8.70
2019-05-12T22:38:21.023Z,8.70
2019-05-12T22:40:57.752Z,8.50
2019-05-12T22:43:23.143Z,8.40
2019-05-12T22:45:54.496Z,8.30
2019-05-12T22:48:23.035Z,8.10
2019-05-12T22:50:54.810Z,8.10
2019-05-12T22:53:25.747Z,8.00
2019-05-12T22:55:54.427Z,8.10
2019-05-12T22:58:25.435Z,8.00
2019-05-12T23:01:00.864Z,7.90
2019-05-12T23:03:26.007Z,8.00
2019-05-12T23:05:59.572Z,8.00
2019-05-12T23:08:26.368Z,7.70
2019-05-12T23:10:56.232Z,7.80
2019-05-12T23:13:25.602Z,7.40
2019-05-12T23:15:54.909Z,7.30
2019-05-12T23:18:30.587Z,7.20
2019-05-12T23:20:56.908Z,7.20
2019-05-12T23:23:26.238Z,7.10
2019-05-12T23:26:00.570Z,7.00
2019-05-12T23:28:26.599Z,6.90
2019-05-12T23:30:55.926Z,7.10
2019-05-12T23:33:31.772Z,6.90
2019-05-12T23:35:56.287Z,6.90
2019-05-12T23:38:25.622Z,6.90
2019-05-12T23:40:54.931Z,6.90
2019-05-12T23:43:24.260Z,6.90
2019-05-12T23:45:53.575Z,6.90
2019-05-12T23:48:22.906Z,6.80
2019-05-12T23:50:54.224Z,6.80
2019-05-12T23:53:24.360Z,6.80
2019-05-12T23:55:54.170Z,6.80
2019-05-12T23:58:23.715Z,6.70
